Station: Rabbit Flat

  Atmospheric Gas Attenuation - ITU Rec 676-11   --------------- db/100km ---------------
Date Time Temp RH % AH g/m3 Dew Point Wind Direction Speed kph Gust kph Barometer mB Rainfall Since 9am 24GHz 47GHz 76GHz 122GHz 134GHz 241GHz
07 07:50 11.6 51 5.3 1.8 13 17 1015.9 0 12.6 21.5 28.2 73.5 59.2 200.7
07 07:40 11.4 51 5.24 1.6 15 19 1015.7 0 12.5 21.4 28.1 73.0 58.6 198.6
07 07:30 11.2 50 5.07 1.2 17 22 1015.6 0 12.2 21.2 27.5 71.6 56.7 192.0
07 07:20 11.2 49 4.97 0.9 19 26 1015.6 0 12.0 21.1 27.2 70.6 55.5 187.8
07 07:10 11.4 47 4.83 0.5 19 20 1015.6 0 11.7 20.8 26.6 69.1 53.7 181.5
07 07:00 11.7 46 4.81 0.5 22 32 1015.5 0 11.6 20.7 26.4 68.6 53.3 180.0
07 06:50 12 44 4.69 0.1 24 28 1015.5 0 11.3 20.5 25.9 67.3 51.7 174.4
07 06:40 12.3 40 4.34 -0.9 19 22 1015.4 0 10.6 19.9 24.6 63.8 47.5 159.7
07 06:30 13.2 39 4.48 -0.4 20 30 1015.4 0 10.9 19.9 24.8 64.3 48.6 163.5
07 06:20 13 40 4.54 -0.3 19 24 1015.3 0 11.0 20.1 25.1 65.0 49.4 166.3
07 06:10 13.1 39 4.45 -0.5 17 19 1015.4 0 10.8 19.9 24.7 64.1 48.3 162.5
07 06:00 13.2 39 4.48 -0.4 15 20 1014.2 0 10.9 19.9 24.8 64.2 48.5 163.3
07 05:50 13.1 39 4.45 -0.5 15 17 1015 0 10.8 19.9 24.7 64.1 48.3 162.4
07 05:40 12.9 38 4.28 -1.1 17 22 1014.8 0 10.4 19.7 24.2 62.7 46.4 156.0
07 05:30 13.1 37 4.22 -1.2 20 24 1014.8 0 10.3 19.6 23.9 62.0 45.7 153.3
07 05:20 13.3 37 4.27 -1.1 19 24 1014.9 0 10.4 19.6 24.0 62.3 46.1 154.9
07 05:10 13.2 38 4.36 -0.8 19 20 1015 0 10.6 19.7 24.4 63.2 47.2 158.7
07 04:50 12.4 41 4.48 -0.5 19 20 1014.9 0 10.9 20.1 25.0 64.9 49.0 165.0
07 04:40 11.6 43 4.47 -0.5 15 17 1014.9 0 10.9 20.2 25.2 65.5 49.4 166.2
07 04:30 11.3 43 4.39 -0.8 13 15 1015 0 10.7 20.2 25.1 65.0 48.7 163.6
07 04:20 11.1 43 4.33 -1 13 15 1015 0 10.6 20.2 24.9 64.6 48.1 161.6
07 04:10 11.2 42 4.26 -1.2 11 13 1014.9 0 10.5 20.0 24.6 63.8 47.2 158.5
07 04:00 11.3 41 4.18 -1.5 13 15 1014.9 0 10.3 19.9 24.3 63.0 46.2 155.1
07 03:50 11.9 40 4.24 -1.3 13 15 1014.8 0 10.4 19.9 24.3 63.1 46.6 156.3
07 03:40 12.1 40 4.29 -1.1 15 15 1014.7 0 10.5 19.9 24.5 63.4 47.0 158.0
07 03:30 11.8 40 4.21 -1.3 15 17 1014.8 0 10.3 19.8 24.3 62.9 46.3 155.3
07 03:20 12.1 40 4.29 -1.1 13 15 1014.8 0 10.5 19.9 24.5 63.4 47.0 158.0
07 03:10 11.9 40 4.24 -1.3 15 17 1014.7 0 10.4 19.8 24.3 63.1 46.6 156.3
07 03:00 11.6 41 4.26 -1.2 15 17 1013.7 0 10.4 19.9 24.5 63.4 46.9 157.6
07 02:50 11.4 40 4.11 -1.7 15 17 1014.6 0 10.1 19.8 24.0 62.3 45.4 152.0
07 02:40 11.7 39 4.08 -1.8 15 15 1014.7 0 10.1 19.7 23.9 61.8 44.9 150.3
07 02:30 12.1 39 4.18 -1.4 15 17 1014.7 0 10.3 19.7 24.1 62.4 45.8 153.6
07 02:20 11.6 42 4.37 -0.9 15 17 1014.7 0 10.7 20.1 24.9 64.5 48.2 162.1
07 02:10 10.1 44 4.16 -1.6 15 15 1014.8 0 10.3 20.1 24.6 63.8 46.7 156.6
07 02:00 9.7 43 3.97 -2.3 11 13 1014.9 0 9.9 19.9 24.1 62.3 44.7 149.6
07 01:50 9.4 44 3.98 -2.2 9 11 1014.9 0 9.9 20.0 24.2 62.6 45.0 150.5
07 01:40 9.6 42 3.85 -2.7 11 11 1014.9 0 9.6 19.8 23.7 61.3 43.4 144.9
07 01:30 10.1 42 3.97 -2.2 9 11 1015 0 9.9 19.9 23.9 62.0 44.5 148.8
07 01:20 9.9 42 3.92 -2.4 11 11 1015 0 9.8 19.8 23.8 61.7 44.0 147.2
07 01:10 9.9 41 3.83 -2.7 11 13 1015.1 0 9.6 19.7 23.5 60.9 43.0 143.6
07 01:00 10 41 3.85 -2.6 11 13 1015.1 0 9.6 19.7 23.6 61.0 43.2 144.2
07 00:50 9.9 40 3.74 -3 11 13 1015.1 0 9.4 19.6 23.2 60.0 42.0 139.9
07 00:40 10.4 39 3.76 -2.9 11 13 1015.1 0 9.4 19.5 23.1 59.8 41.9 139.9
07 00:30 11 38 3.8 -2.8 11 11 1015.2 0 9.5 19.4 23.1 59.8 42.1 140.5
07 00:20 11 37 3.7 -3.1 11 11 1015.2 0 9.3 19.3 22.8 58.9 41.0 136.5
07 00:10 11.3 36 3.67 -3.2 11 13 1015.4 0 9.2 19.2 22.6 58.4 40.5 134.8
07 00:00 11.9 35 3.71 -3.1 13 15 1014.5 0 9.3 19.1 22.5 58.3 40.6 135.3
06 23:50 12.4 34 3.72 -3 13 15 1015.6 0 9.3 19.1 22.5 58.1 40.5 135.0
06 23:40 12.2 34 3.67 -3.2 13 15 1015.6 0 9.2 19.0 22.4 57.8 40.0 133.4
06 23:30 12.6 33 3.65 -3.2 11 13 1015.6 0 9.1 18.9 22.2 57.3 39.6 132.0
06 23:20 13 33 3.74 -2.9 11 13 1015.7 0 9.3 19.0 22.4 57.8 40.4 134.8
06 23:10 12.3 33 3.58 -3.5 11 13 1015.7 0 9.0 18.9 22.0 56.9 39.0 129.8
06 23:00 12.7 32 3.56 -3.5 11 13 1015.6 0 8.9 18.8 21.9 56.4 38.6 128.3
06 22:50 12.9 31 3.49 -3.8 13 13 1015.6 0 8.8 18.7 21.6 55.7 37.7 125.4
06 22:40 13.5 30 3.51 -3.7 11 11 1015.7 0 8.8 18.6 21.5 55.5 37.7 125.2
06 22:30 14 29 3.5 -3.7 13 15 1015.6 0 8.8 18.4 21.3 55.0 37.3 124.1
06 22:20 14.5 28 3.48 -3.8 13 15 1015.6 0 8.7 18.3 21.1 54.5 36.9 122.6
06 22:10 15.3 28 3.66 -3.1 15 15 1015.6 0 9.1 18.4 21.5 55.5 38.4 128.1
06 22:00 14.8 28 3.55 -3.5 13 17 1015.5 0 8.9 18.4 21.3 54.9 37.5 124.8
06 21:50 14.7 28 3.53 -3.6 13 15 1015.5 0 8.8 18.3 21.2 54.8 37.3 124.2
06 21:40 14.8 27 3.42 -4 15 17 1015.4 0 8.6 18.2 20.9 53.8 36.1 119.9
06 21:30 15.1 26 3.35 -4.2 15 19 1015.3 0 8.4 18.0 20.6 53.0 35.3 116.9
06 21:20 15.6 26 3.46 -3.8 15 17 1015.2 0 8.7 18.1 20.8 53.6 36.2 120.2
06 21:10 15.8 25 3.37 -4.2 15 17 1015.1 0 8.5 17.9 20.5 52.7 35.2 116.6
06 21:00 15.6 25 3.32 -4.3 15 19 1013.9 0 8.4 17.9 20.3 52.3 34.7 114.9
06 20:50 15.6 25 3.32 -4.3 15 17 1014.8 0 8.4 17.9 20.3 52.4 34.7 115.0
06 20:40 15.9 25 3.39 -4.1 17 19 1014.7 0 8.5 17.9 20.5 52.8 35.3 117.1
06 20:30 15 26 3.33 -4.3 13 15 1014.6 0 8.4 18.0 20.5 52.9 35.1 116.2
06 20:20 15.1 25 3.23 -4.8 11 13 1014.5 0 8.2 17.9 20.2 51.9 34.0 112.3
06 20:10 15.7 24 3.21 -4.8 13 13 1014.4 0 8.1 17.7 20.0 51.4 33.5 110.8
06 20:00 15.9 23 3.11 -5.2 13 17 1014.2 0 7.9 17.5 19.6 50.4 32.4 106.9
06 19:50 16.5 22 3.09 -5.3 13 13 1014 0 7.9 17.4 19.4 49.9 31.9 105.4
06 19:40 17.1 21 3.06 -5.4 13 13 1013.9 0 7.8 17.3 19.2 49.3 31.4 103.6
06 19:30 18.2 20 3.11 -5.1 15 20 1013.8 0 7.9 17.1 19.1 49.0 31.5 104.0
06 19:20 18.2 20 3.11 -5.1 15 17 1013.6 0 7.9 17.1 19.1 49.0 31.5 104.0
06 19:10 18.7 19 3.04 -5.4 15 19 1013.5 0 7.7 16.9 18.7 48.2 30.6 100.9
06 19:00 19.1 19 3.11 -5 17 22 1013.3 0 7.8 16.9 18.8 48.5 31.1 102.8
06 18:50 19.3 18 2.99 -5.6 17 19 1013.2 0 7.6 16.8 18.4 47.4 29.9 98.4
06 18:40 19.6 18 3.04 -5.3 15 19 1013.1 0 7.7 16.8 18.5 47.6 30.3 99.8
06 18:30 20.1 17 2.95 -5.7 20 28 1013 0 7.5 16.6 18.2 46.6 29.2 96.1
06 18:20 20.5 17 3.02 -5.4 24 28 1012.9 0 7.6 16.6 18.3 46.9 29.7 98.0
06 18:10 20.9 16 2.91 -5.8 17 20 1012.8 0 7.4 16.4 17.9 45.9 28.5 93.8
06 18:00 21.3 15 2.8 -6.3 20 32 1011.6 0 7.1 16.1 17.4 44.7 27.3 89.6
06 17:50 21.6 15 2.84 -6.1 22 26 1012.6 0 7.2 16.2 17.5 44.9 27.6 90.7
06 17:40 22 15 2.91 -5.8 17 20 1012.5 0 7.4 16.2 17.6 45.2 28.2 92.6
06 17:30 22 15 2.91 -5.8 24 33 1012.4 0 7.4 16.2 17.6 45.2 28.2 92.6
06 17:20 22.3 15 2.96 -5.6 28 32 1012.3 0 7.4 16.2 17.7 45.5 28.5 93.9
06 17:10 22.5 15 3 -5.4 19 24 1012.2 0 7.5 16.2 17.8 45.6 28.8 95.1
06 17:00 22.3 15 2.96 -5.6 24 37 1012.2 0 7.4 16.2 17.7 45.4 28.5 93.9
06 16:50 22.8 14 2.84 -6.1 30 33 1012.1 0 7.2 16.0 17.3 44.3 27.2 89.4
06 16:40 22.7 14 2.83 -6.1 22 26 1012 0 7.2 16.0 17.2 44.2 27.2 89.2
06 16:30 23.1 14 2.89 -5.8 24 35 1011.9 0 7.3 16.0 17.3 44.5 27.6 90.7
06 16:20 23 14 2.88 -5.9 30 32 1011.8 0 7.3 16.0 17.3 44.4 27.5 90.5
06 16:10 23.1 14 2.89 -5.8 22 28 1011.9 0 7.3 16.0 17.3 44.5 27.6 90.7
06 16:00 23.1 14 2.89 -5.8 26 35 1011.9 0 7.3 16.0 17.3 44.5 27.6 90.7
06 15:50 23 14 2.88 -5.9 24 26 1011.8 0 7.3 16.0 17.3 44.4 27.5 90.5
06 15:40 22.8 14 2.84 -6.1 22 26 1011.8 0 7.2 15.9 17.2 44.3 27.2 89.4
06 15:30 23.6 13 2.76 -6.4 26 41 1011.9 0 7.0 15.7 16.9 43.2 26.2 86.0
06 15:20 23.2 13 2.7 -6.7 26 35 1012 0 6.9 15.7 16.8 43.0 25.8 84.4
06 15:10 23.1 14 2.89 -5.8 20 24 1012 0 7.3 16.0 17.3 44.5 27.6 90.8

Last Refresh: 07-Aug-2020 08:04:43

Most of the information presented on this site is sourced from the Bureau of Meteorology.  Copyright in all material sourced from the Bureau of Meteorology resides with the Commonwealth of Australia.